sensor_id;sensor_type;location;lat;lon;timestamp;temperature;humidity
43089;DHT22;28709;52.030;5.652;2023-04-01T00:00:53;9.70;99.90
43089;DHT22;28709;52.030;5.652;2023-04-01T00:03:20;9.80;99.90
43089;DHT22;28709;52.030;5.652;2023-04-01T00:05:46;9.70;99.90
43089;DHT22;28709;52.030;5.652;2023-04-01T00:08:12;9.80;99.90
43089;DHT22;28709;52.030;5.652;2023-04-01T00:10:38;9.80;99.90
43089;DHT22;28709;52.030;5.652;2023-04-01T00:13:03;9.80;99.90
43089;DHT22;28709;52.030;5.652;2023-04-01T00:15:29;9.80;99.90
43089;DHT22;28709;52.030;5.652;2023-04-01T00:17:55;9.80;99.90
43089;DHT22;28709;52.030;5.652;2023-04-01T00:20:20;9.80;99.90
43089;DHT22;28709;52.030;5.652;2023-04-01T00:22:46;9.80;99.90
43089;DHT22;28709;52.030;5.652;2023-04-01T00:25:13;9.80;99.90
43089;DHT22;28709;52.030;5.652;2023-04-01T00:27:38;9.80;99.90
43089;DHT22;28709;52.030;5.652;2023-04-01T00:30:05;9.80;99.90
43089;DHT22;28709;52.030;5.652;2023-04-01T00:32:31;9.80;99.90
43089;DHT22;28709;52.030;5.652;2023-04-01T00:34:56;9.80;99.90
43089;DHT22;28709;52.030;5.652;2023-04-01T00:37:25;9.90;99.90
43089;DHT22;28709;52.030;5.652;2023-04-01T00:39:51;9.80;99.90
43089;DHT22;28709;52.030;5.652;2023-04-01T00:42:17;9.90;99.90
43089;DHT22;28709;52.030;5.652;2023-04-01T00:44:46;9.90;99.90
43089;DHT22;28709;52.030;5.652;2023-04-01T00:47:13;9.90;99.90
43089;DHT22;28709;52.030;5.652;2023-04-01T00:49:44;9.90;99.90
43089;DHT22;28709;52.030;5.652;2023-04-01T00:52:14;9.90;99.90
43089;DHT22;28709;52.030;5.652;2023-04-01T00:54:44;9.90;99.90
43089;DHT22;28709;52.030;5.652;2023-04-01T00:57:21;9.90;99.90
43089;DHT22;28709;52.030;5.652;2023-04-01T00:59:51;9.90;99.90
43089;DHT22;28709;52.030;5.652;2023-04-01T01:02:18;9.90;99.90
43089;DHT22;28709;52.030;5.652;2023-04-01T01:04:44;9.80;99.90
43089;DHT22;28709;52.030;5.652;2023-04-01T01:18:00;9.80;99.90
43089;DHT22;28709;52.030;5.652;2023-04-01T01:31:56;9.60;99.90
43089;DHT22;28709;52.030;5.652;2023-04-01T01:34:39;9.60;99.90
43089;DHT22;28709;52.030;5.652;2023-04-01T01:37:11;9.70;99.90
43089;DHT22;28709;52.030;5.652;2023-04-01T01:39:39;9.60;99.90
43089;DHT22;28709;52.030;5.652;2023-04-01T01:42:09;9.60;99.90
43089;DHT22;28709;52.030;5.652;2023-04-01T01:44:37;9.60;99.90
43089;DHT22;28709;52.030;5.652;2023-04-01T01:47:03;9.60;99.90
43089;DHT22;28709;52.030;5.652;2023-04-01T01:49:32;9.60;99.90
43089;DHT22;28709;52.030;5.652;2023-04-01T01:51:58;9.60;99.90
43089;DHT22;28709;52.030;5.652;2023-04-01T01:54:24;9.60;99.90
43089;DHT22;28709;52.030;5.652;2023-04-01T01:56:54;9.60;99.90
43089;DHT22;28709;52.030;5.652;2023-04-01T01:59:22;9.60;99.90
43089;DHT22;28709;52.030;5.652;2023-04-01T02:01:52;9.50;99.90
43089;DHT22;28709;52.030;5.652;2023-04-01T02:04:19;9.50;99.90
43089;DHT22;28709;52.030;5.652;2023-04-01T02:06:53;9.50;99.90
43089;DHT22;28709;52.030;5.652;2023-04-01T02:09:21;9.50;99.90
43089;DHT22;28709;52.030;5.652;2023-04-01T02:12:02;9.50;99.90
43089;DHT22;28709;52.030;5.652;2023-04-01T02:14:39;9.50;99.90
43089;DHT22;28709;52.030;5.652;2023-04-01T02:17:11;9.50;99.90
43089;DHT22;28709;52.030;5.652;2023-04-01T02:19:45;9.40;99.90
43089;DHT22;28709;52.030;5.652;2023-04-01T02:22:14;9.40;99.90
43089;DHT22;28709;52.030;5.652;2023-04-01T02:24:42;9.40;99.90
43089;DHT22;28709;52.030;5.652;2023-04-01T02:27:12;9.40;99.90
43089;DHT22;28709;52.030;5.652;2023-04-01T02:29:38;9.40;99.90
43089;DHT22;28709;52.030;5.652;2023-04-01T02:32:05;9.40;99.90
43089;DHT22;28709;52.030;5.652;2023-04-01T02:34:31;9.40;99.90
43089;DHT22;28709;52.030;5.652;2023-04-01T02:36:57;9.40;99.90
43089;DHT22;28709;52.030;5.652;2023-04-01T02:39:23;9.40;99.90
43089;DHT22;28709;52.030;5.652;2023-04-01T02:41:52;9.40;99.90
43089;DHT22;28709;52.030;5.652;2023-04-01T02:44:18;9.40;99.90
43089;DHT22;28709;52.030;5.652;2023-04-01T02:46:43;9.40;99.90
43089;DHT22;28709;52.030;5.652;2023-04-01T02:49:09;9.40;99.90
43089;DHT22;28709;52.030;5.652;2023-04-01T02:51:35;9.40;99.90
43089;DHT22;28709;52.030;5.652;2023-04-01T02:54:01;9.40;99.90
43089;DHT22;28709;52.030;5.652;2023-04-01T02:56:26;9.40;99.90
43089;DHT22;28709;52.030;5.652;2023-04-01T02:58:53;9.40;99.90
43089;DHT22;28709;52.030;5.652;2023-04-01T03:01:19;9.40;99.90
43089;DHT22;28709;52.030;5.652;2023-04-01T03:03:45;9.30;99.90
43089;DHT22;28709;52.030;5.652;2023-04-01T03:06:13;9.40;99.90
43089;DHT22;28709;52.030;5.652;2023-04-01T03:08:39;9.30;99.90
43089;DHT22;28709;52.030;5.652;2023-04-01T03:11:05;9.40;99.90
43089;DHT22;28709;52.030;5.652;2023-04-01T03:13:31;9.40;99.90
43089;DHT22;28709;52.030;5.652;2023-04-01T03:15:57;9.30;99.90
43089;DHT22;28709;52.030;5.652;2023-04-01T03:18:23;9.30;99.90
43089;DHT22;28709;52.030;5.652;2023-04-01T03:20:49;9.30;99.90
43089;DHT22;28709;52.030;5.652;2023-04-01T03:23:14;9.30;99.90
43089;DHT22;28709;52.030;5.652;2023-04-01T03:25:42;9.30;99.90
43089;DHT22;28709;52.030;5.652;2023-04-01T03:28:08;9.30;99.90
43089;DHT22;28709;52.030;5.652;2023-04-01T03:30:34;9.30;99.90
43089;DHT22;28709;52.030;5.652;2023-04-01T03:32:59;9.30;99.90
43089;DHT22;28709;52.030;5.652;2023-04-01T03:35:26;9.30;99.90
43089;DHT22;28709;52.030;5.652;2023-04-01T03:37:52;9.30;99.90
43089;DHT22;28709;52.030;5.652;2023-04-01T03:40:18;9.30;99.90
43089;DHT22;28709;52.030;5.652;2023-04-01T03:42:44;9.30;99.90
43089;DHT22;28709;52.030;5.652;2023-04-01T03:45:10;9.20;99.90
43089;DHT22;28709;52.030;5.652;2023-04-01T03:47:37;9.30;99.90
43089;DHT22;28709;52.030;5.652;2023-04-01T03:50:04;9.20;99.90
43089;DHT22;28709;52.030;5.652;2023-04-01T03:52:30;9.20;99.90
43089;DHT22;28709;52.030;5.652;2023-04-01T03:54:55;9.20;99.90
43089;DHT22;28709;52.030;5.652;2023-04-01T03:57:21;9.20;99.90
43089;DHT22;28709;52.030;5.652;2023-04-01T03:59:47;9.20;99.90
43089;DHT22;28709;52.030;5.652;2023-04-01T04:02:12;9.20;99.90
43089;DHT22;28709;52.030;5.652;2023-04-01T04:04:38;9.20;99.90
43089;DHT22;28709;52.030;5.652;2023-04-01T04:07:04;9.20;99.90
43089;DHT22;28709;52.030;5.652;2023-04-01T04:09:30;9.20;99.90
43089;DHT22;28709;52.030;5.652;2023-04-01T04:11:56;9.20;99.90
43089;DHT22;28709;52.030;5.652;2023-04-01T04:14:23;9.20;99.90
43089;DHT22;28709;52.030;5.652;2023-04-01T04:16:48;9.20;99.90
43089;DHT22;28709;52.030;5.652;2023-04-01T04:19:14;9.20;99.90
43089;DHT22;28709;52.030;5.652;2023-04-01T04:21:41;9.20;99.90
43089;DHT22;28709;52.030;5.652;2023-04-01T04:24:07;9.20;99.90
43089;DHT22;28709;52.030;5.652;2023-04-01T04:26:33;9.20;99.90
43089;DHT22;28709;52.030;5.652;2023-04-01T04:29:00;9.20;99.90
43089;DHT22;28709;52.030;5.652;2023-04-01T04:31:26;9.20;99.90
43089;DHT22;28709;52.030;5.652;2023-04-01T04:33:53;9.20;99.90
43089;DHT22;28709;52.030;5.652;2023-04-01T04:36:19;9.20;99.90
43089;DHT22;28709;52.030;5.652;2023-04-01T04:38:45;9.20;99.90
43089;DHT22;28709;52.030;5.652;2023-04-01T04:41:16;9.20;99.90
43089;DHT22;28709;52.030;5.652;2023-04-01T04:43:51;9.20;99.90
43089;DHT22;28709;52.030;5.652;2023-04-01T04:46:18;9.30;99.90
43089;DHT22;28709;52.030;5.652;2023-04-01T04:48:44;9.30;99.90
43089;DHT22;28709;52.030;5.652;2023-04-01T04:51:13;9.30;99.90
43089;DHT22;28709;52.030;5.652;2023-04-01T04:53:40;9.30;99.90
43089;DHT22;28709;52.030;5.652;2023-04-01T04:56:06;9.30;99.90
43089;DHT22;28709;52.030;5.652;2023-04-01T04:58:31;9.30;99.90
43089;DHT22;28709;52.030;5.652;2023-04-01T05:00:57;9.30;99.90
43089;DHT22;28709;52.030;5.652;2023-04-01T05:03:23;9.40;99.90
43089;DHT22;28709;52.030;5.652;2023-04-01T05:05:50;9.40;99.90
43089;DHT22;28709;52.030;5.652;2023-04-01T05:08:16;9.40;99.90
43089;DHT22;28709;52.030;5.652;2023-04-01T05:10:42;9.40;99.90
43089;DHT22;28709;52.030;5.652;2023-04-01T05:13:07;9.40;99.90
43089;DHT22;28709;52.030;5.652;2023-04-01T05:15:33;9.50;99.90
43089;DHT22;28709;52.030;5.652;2023-04-01T05:17:59;9.50;99.90
43089;DHT22;28709;52.030;5.652;2023-04-01T05:20:24;9.50;99.90
43089;DHT22;28709;52.030;5.652;2023-04-01T05:22:54;9.50;99.90
43089;DHT22;28709;52.030;5.652;2023-04-01T05:25:20;9.50;99.90
43089;DHT22;28709;52.030;5.652;2023-04-01T05:27:46;9.50;99.90
43089;DHT22;28709;52.030;5.652;2023-04-01T05:30:11;9.50;99.90
43089;DHT22;28709;52.030;5.652;2023-04-01T05:32:37;9.50;99.90
43089;DHT22;28709;52.030;5.652;2023-04-01T05:35:03;9.50;99.90
43089;DHT22;28709;52.030;5.652;2023-04-01T05:37:29;9.50;99.90
43089;DHT22;28709;52.030;5.652;2023-04-01T05:39:55;9.50;99.90
43089;DHT22;28709;52.030;5.652;2023-04-01T05:42:20;9.50;99.90
43089;DHT22;28709;52.030;5.652;2023-04-01T05:44:46;9.50;99.90
43089;DHT22;28709;52.030;5.652;2023-04-01T05:47:11;9.60;99.90
43089;DHT22;28709;52.030;5.652;2023-04-01T05:49:37;9.50;99.90
43089;DHT22;28709;52.030;5.652;2023-04-01T05:52:03;9.60;99.90
43089;DHT22;28709;52.030;5.652;2023-04-01T05:54:28;9.60;99.90
43089;DHT22;28709;52.030;5.652;2023-04-01T05:56:54;9.60;99.90
43089;DHT22;28709;52.030;5.652;2023-04-01T05:59:20;9.60;99.90
43089;DHT22;28709;52.030;5.652;2023-04-01T06:01:45;9.60;99.90
43089;DHT22;28709;52.030;5.652;2023-04-01T06:04:16;9.60;99.90
43089;DHT22;28709;52.030;5.652;2023-04-01T06:06:42;9.60;99.90
43089;DHT22;28709;52.030;5.652;2023-04-01T06:09:19;9.70;99.90
43089;DHT22;28709;52.030;5.652;2023-04-01T06:17:30;9.70;99.90
43089;DHT22;28709;52.030;5.652;2023-04-01T06:20:26;9.80;99.90
43089;DHT22;28709;52.030;5.652;2023-04-01T06:30:42;9.80;99.90
43089;DHT22;28709;52.030;5.652;2023-04-01T06:35:52;9.90;99.90
43089;DHT22;28709;52.030;5.652;2023-04-01T06:54:20;9.90;99.90
43089;DHT22;28709;52.030;5.652;2023-04-01T06:56:50;10.00;99.90
43089;DHT22;28709;52.030;5.652;2023-04-01T06:59:28;10.00;99.90
43089;DHT22;28709;52.030;5.652;2023-04-01T07:02:22;10.00;99.90
43089;DHT22;28709;52.030;5.652;2023-04-01T07:04:46;10.00;99.90
43089;DHT22;28709;52.030;5.652;2023-04-01T07:07:37;10.00;99.90
43089;DHT22;28709;52.030;5.652;2023-04-01T07:10:09;10.00;99.90
43089;DHT22;28709;52.030;5.652;2023-04-01T07:12:43;10.00;99.90
43089;DHT22;28709;52.030;5.652;2023-04-01T07:15:21;10.00;99.90
43089;DHT22;28709;52.030;5.652;2023-04-01T07:17:55;10.00;99.90
43089;DHT22;28709;52.030;5.652;2023-04-01T07:20:32;10.10;99.90
43089;DHT22;28709;52.030;5.652;2023-04-01T07:23:03;10.00;99.90
43089;DHT22;28709;52.030;5.652;2023-04-01T07:25:37;10.10;99.90
43089;DHT22;28709;52.030;5.652;2023-04-01T07:28:10;10.10;99.90
43089;DHT22;28709;52.030;5.652;2023-04-01T07:33:53;10.10;99.90
43089;DHT22;28709;52.030;5.652;2023-04-01T07:36:42;10.10;99.90
43089;DHT22;28709;52.030;5.652;2023-04-01T07:39:28;10.10;99.90
43089;DHT22;28709;52.030;5.652;2023-04-01T07:50:17;10.20;99.90
43089;DHT22;28709;52.030;5.652;2023-04-01T07:53:15;10.20;99.90
43089;DHT22;28709;52.030;5.652;2023-04-01T07:56:07;10.10;99.90
43089;DHT22;28709;52.030;5.652;2023-04-01T07:58:38;10.10;99.90
43089;DHT22;28709;52.030;5.652;2023-04-01T08:06:42;10.00;99.90
43089;DHT22;28709;52.030;5.652;2023-04-01T08:20:55;10.20;99.90
43089;DHT22;28709;52.030;5.652;2023-04-01T08:23:27;10.20;99.90
43089;DHT22;28709;52.030;5.652;2023-04-01T08:26:02;10.30;99.90
43089;DHT22;28709;52.030;5.652;2023-04-01T08:28:33;10.30;99.90
43089;DHT22;28709;52.030;5.652;2023-04-01T08:31:08;10.30;99.90
43089;DHT22;28709;52.030;5.652;2023-04-01T08:33:34;10.40;99.90
43089;DHT22;28709;52.030;5.652;2023-04-01T08:36:15;10.40;99.90
43089;DHT22;28709;52.030;5.652;2023-04-01T08:38:57;10.40;99.90
43089;DHT22;28709;52.030;5.652;2023-04-01T08:44:15;10.40;99.90
43089;DHT22;28709;52.030;5.652;2023-04-01T08:52:22;10.40;99.90
43089;DHT22;28709;52.030;5.652;2023-04-01T09:20:05;10.40;99.90
43089;DHT22;28709;52.030;5.652;2023-04-01T09:22:57;10.40;99.90
43089;DHT22;28709;52.030;5.652;2023-04-01T09:30:46;10.60;99.90
43089;DHT22;28709;52.030;5.652;2023-04-01T09:42:41;10.70;99.90
43089;DHT22;28709;52.030;5.652;2023-04-01T09:45:29;10.80;99.90
43089;DHT22;28709;52.030;5.652;2023-04-01T10:04:41;11.50;99.90
43089;DHT22;28709;52.030;5.652;2023-04-01T10:13:18;12.10;99.90
43089;DHT22;28709;52.030;5.652;2023-04-01T10:35:45;13.00;99.90
43089;DHT22;28709;52.030;5.652;2023-04-01T10:49:54;12.80;99.90
43089;DHT22;28709;52.030;5.652;2023-04-01T11:26:09;11.90;99.90
43089;DHT22;28709;52.030;5.652;2023-04-01T11:28:59;11.80;99.90
43089;DHT22;28709;52.030;5.652;2023-04-01T11:31:54;11.60;99.90
43089;DHT22;28709;52.030;5.652;2023-04-01T11:40:12;11.70;99.90
43089;DHT22;28709;52.030;5.652;2023-04-01T11:58:51;11.10;99.90
43089;DHT22;28709;52.030;5.652;2023-04-01T12:12:36;11.20;99.90
43089;DHT22;28709;52.030;5.652;2023-04-01T12:20:57;11.10;99.90
43089;DHT22;28709;52.030;5.652;2023-04-01T12:23:51;11.10;99.90
43089;DHT22;28709;52.030;5.652;2023-04-01T12:53:24;11.40;99.90
43089;DHT22;28709;52.030;5.652;2023-04-01T12:55:52;11.60;99.90
43089;DHT22;28709;52.030;5.652;2023-04-01T13:27:37;11.20;99.90
43089;DHT22;28709;52.030;5.652;2023-04-01T13:35:46;11.40;99.90
43089;DHT22;28709;52.030;5.652;2023-04-01T13:38:31;11.30;99.90
43089;DHT22;28709;52.030;5.652;2023-04-01T13:41:05;11.20;99.90
43089;DHT22;28709;52.030;5.652;2023-04-01T13:43:43;11.10;99.90
43089;DHT22;28709;52.030;5.652;2023-04-01T13:46:45;11.10;99.90
43089;DHT22;28709;52.030;5.652;2023-04-01T13:52:00;11.20;99.90
43089;DHT22;28709;52.030;5.652;2023-04-01T13:54:39;11.20;99.90
43089;DHT22;28709;52.030;5.652;2023-04-01T14:00:22;11.30;99.90
43089;DHT22;28709;52.030;5.652;2023-04-01T14:08:29;11.30;99.90
43089;DHT22;28709;52.030;5.652;2023-04-01T14:14:46;11.20;99.90
43089;DHT22;28709;52.030;5.652;2023-04-01T14:17:44;11.20;99.90
43089;DHT22;28709;52.030;5.652;2023-04-01T14:31:23;11.00;99.90
43089;DHT22;28709;52.030;5.652;2023-04-01T14:43:09;11.10;99.90
43089;DHT22;28709;52.030;5.652;2023-04-01T14:45:58;11.00;99.90
43089;DHT22;28709;52.030;5.652;2023-04-01T14:48:49;11.00;99.90
43089;DHT22;28709;52.030;5.652;2023-04-01T14:51:20;11.10;99.90
43089;DHT22;28709;52.030;5.652;2023-04-01T14:56:48;11.10;99.90
43089;DHT22;28709;52.030;5.652;2023-04-01T15:07:47;10.80;99.90
43089;DHT22;28709;52.030;5.652;2023-04-01T15:27:29;10.50;99.90
43089;DHT22;28709;52.030;5.652;2023-04-01T15:30:06;10.50;99.90
43089;DHT22;28709;52.030;5.652;2023-04-01T15:37:57;10.50;99.90
43089;DHT22;28709;52.030;5.652;2023-04-01T15:43:06;10.50;99.90
43089;DHT22;28709;52.030;5.652;2023-04-01T15:45:49;10.50;99.90
43089;DHT22;28709;52.030;5.652;2023-04-01T15:54:25;10.50;99.90
43089;DHT22;28709;52.030;5.652;2023-04-01T15:57:14;10.50;99.90
43089;DHT22;28709;52.030;5.652;2023-04-01T16:03:13;10.40;99.90
43089;DHT22;28709;52.030;5.652;2023-04-01T16:06:20;10.40;99.90
43089;DHT22;28709;52.030;5.652;2023-04-01T16:22:53;10.10;99.90
43089;DHT22;28709;52.030;5.652;2023-04-01T16:25:40;10.10;99.90
43089;DHT22;28709;52.030;5.652;2023-04-01T16:31:49;10.00;99.90
43089;DHT22;28709;52.030;5.652;2023-04-01T16:34:29;10.00;99.90
43089;DHT22;28709;52.030;5.652;2023-04-01T16:37:17;10.00;99.90
43089;DHT22;28709;52.030;5.652;2023-04-01T16:39:53;10.00;99.90
43089;DHT22;28709;52.030;5.652;2023-04-01T16:45:19;10.00;99.90
43089;DHT22;28709;52.030;5.652;2023-04-01T16:48:35;10.00;99.90
43089;DHT22;28709;52.030;5.652;2023-04-01T16:51:00;10.00;99.90
43089;DHT22;28709;52.030;5.652;2023-04-01T16:53:53;10.00;99.90
43089;DHT22;28709;52.030;5.652;2023-04-01T16:56:36;9.90;99.90
43089;DHT22;28709;52.030;5.652;2023-04-01T17:01:49;9.90;99.90
43089;DHT22;28709;52.030;5.652;2023-04-01T17:12:37;9.70;99.90
43089;DHT22;28709;52.030;5.652;2023-04-01T17:17:45;9.60;99.90
43089;DHT22;28709;52.030;5.652;2023-04-01T17:23:20;9.50;99.90
43089;DHT22;28709;52.030;5.652;2023-04-01T17:42:10;9.20;99.90
43089;DHT22;28709;52.030;5.652;2023-04-01T17:44:58;9.10;99.90
43089;DHT22;28709;52.030;5.652;2023-04-01T17:47:58;9.20;99.90
43089;DHT22;28709;52.030;5.652;2023-04-01T17:59:19;9.10;99.90
43089;DHT22;28709;52.030;5.652;2023-04-01T18:10:27;9.00;99.90
43089;DHT22;28709;52.030;5.652;2023-04-01T18:16:11;9.00;99.90
43089;DHT22;28709;52.030;5.652;2023-04-01T18:21:53;9.00;99.90
43089;DHT22;28709;52.030;5.652;2023-04-01T18:24:28;9.00;99.90
43089;DHT22;28709;52.030;5.652;2023-04-01T18:27:22;9.00;99.90
43089;DHT22;28709;52.030;5.652;2023-04-01T18:29:53;8.90;99.90
43089;DHT22;28709;52.030;5.652;2023-04-01T18:32:36;8.90;99.90
43089;DHT22;28709;52.030;5.652;2023-04-01T18:40:50;8.90;99.90
43089;DHT22;28709;52.030;5.652;2023-04-01T18:43:34;8.80;99.90
43089;DHT22;28709;52.030;5.652;2023-04-01T18:52:03;8.70;99.90
43089;DHT22;28709;52.030;5.652;2023-04-01T18:55:14;8.70;99.90
43089;DHT22;28709;52.030;5.652;2023-04-01T18:57:38;8.70;99.90
43089;DHT22;28709;52.030;5.652;2023-04-01T19:03:00;8.60;99.90
43089;DHT22;28709;52.030;5.652;2023-04-01T19:05:33;8.60;99.90
43089;DHT22;28709;52.030;5.652;2023-04-01T19:08:19;8.60;99.90
43089;DHT22;28709;52.030;5.652;2023-04-01T19:11:04;8.60;99.90
43089;DHT22;28709;52.030;5.652;2023-04-01T19:13:44;8.60;99.90
43089;DHT22;28709;52.030;5.652;2023-04-01T19:21:44;8.60;99.90
43089;DHT22;28709;52.030;5.652;2023-04-01T19:27:03;8.50;99.90
43089;DHT22;28709;52.030;5.652;2023-04-01T19:37:40;8.40;99.90
43089;DHT22;28709;52.030;5.652;2023-04-01T19:51:07;8.30;99.90
43089;DHT22;28709;52.030;5.652;2023-04-01T19:56:18;8.10;99.90
43089;DHT22;28709;52.030;5.652;2023-04-01T20:01:35;8.00;99.90
43089;DHT22;28709;52.030;5.652;2023-04-01T20:10:24;7.90;99.90
43089;DHT22;28709;52.030;5.652;2023-04-01T20:15:31;7.90;99.90
43089;DHT22;28709;52.030;5.652;2023-04-01T20:18:01;7.90;99.90
43089;DHT22;28709;52.030;5.652;2023-04-01T20:20:30;7.80;99.90
43089;DHT22;28709;52.030;5.652;2023-04-01T20:25:40;7.70;99.90
43089;DHT22;28709;52.030;5.652;2023-04-01T20:50:21;7.60;99.90
43089;DHT22;28709;52.030;5.652;2023-04-01T20:53:16;7.60;99.90
43089;DHT22;28709;52.030;5.652;2023-04-01T21:01:47;7.60;99.90
43089;DHT22;28709;52.030;5.652;2023-04-01T21:07:22;7.50;99.90
43089;DHT22;28709;52.030;5.652;2023-04-01T21:21:14;7.40;99.90
43089;DHT22;28709;52.030;5.652;2023-04-01T21:24:35;7.40;99.90
43089;DHT22;28709;52.030;5.652;2023-04-01T21:27:47;7.40;99.90
43089;DHT22;28709;52.030;5.652;2023-04-01T21:30:39;7.30;99.90
43089;DHT22;28709;52.030;5.652;2023-04-01T21:35:51;7.30;99.90
43089;DHT22;28709;52.030;5.652;2023-04-01T21:38:34;7.30;99.90
43089;DHT22;28709;52.030;5.652;2023-04-01T21:43:53;7.30;99.90
43089;DHT22;28709;52.030;5.652;2023-04-01T21:46:44;7.20;99.90
43089;DHT22;28709;52.030;5.652;2023-04-01T22:00:19;7.00;99.90
43089;DHT22;28709;52.030;5.652;2023-04-01T22:02:56;7.00;99.90
43089;DHT22;28709;52.030;5.652;2023-04-01T22:08:26;6.90;99.90
43089;DHT22;28709;52.030;5.652;2023-04-01T22:11:04;7.00;99.90
43089;DHT22;28709;52.030;5.652;2023-04-01T22:13:41;6.90;99.90
43089;DHT22;28709;52.030;5.652;2023-04-01T22:19:11;6.90;99.90
43089;DHT22;28709;52.030;5.652;2023-04-01T22:21:41;6.90;99.90
43089;DHT22;28709;52.030;5.652;2023-04-01T22:32:42;6.90;99.90
43089;DHT22;28709;52.030;5.652;2023-04-01T22:47:04;6.80;99.90
43089;DHT22;28709;52.030;5.652;2023-04-01T22:49:45;6.80;99.90
43089;DHT22;28709;52.030;5.652;2023-04-01T22:54:53;6.80;99.90
43089;DHT22;28709;52.030;5.652;2023-04-01T23:00:26;6.70;99.90
43089;DHT22;28709;52.030;5.652;2023-04-01T23:03:17;6.70;99.90
43089;DHT22;28709;52.030;5.652;2023-04-01T23:05:51;6.60;99.90
43089;DHT22;28709;52.030;5.652;2023-04-01T23:14:17;6.50;99.90
43089;DHT22;28709;52.030;5.652;2023-04-01T23:25:30;6.40;99.90
43089;DHT22;28709;52.030;5.652;2023-04-01T23:30:50;6.40;99.90
43089;DHT22;28709;52.030;5.652;2023-04-01T23:36:01;6.50;99.90
43089;DHT22;28709;52.030;5.652;2023-04-01T23:38:33;6.50;99.90
43089;DHT22;28709;52.030;5.652;2023-04-01T23:41:00;6.50;99.90
43089;DHT22;28709;52.030;5.652;2023-04-01T23:43:30;6.50;99.90
43089;DHT22;28709;52.030;5.652;2023-04-01T23:46:00;6.50;99.90
43089;DHT22;28709;52.030;5.652;2023-04-01T23:48:38;6.50;99.90
43089;DHT22;28709;52.030;5.652;2023-04-01T23:51:18;6.50;99.90
43089;DHT22;28709;52.030;5.652;2023-04-01T23:53:46;6.50;99.90
43089;DHT22;28709;52.030;5.652;2023-04-01T23:56:16;6.40;99.90
43089;DHT22;28709;52.030;5.652;2023-04-01T23:58:50;6.50;99.90
